Clarence, New York
Current Conditions -  °F | °C
As of 7:54 PM on Monday 20 Oct 2014 (Local Time) from KBUF Reporting Station
Light Rain Light Rain  
Wind Chill: 52°   Ceiling: 3600
Heat Index: 52°   Visibility: 10mi
Dew Point: 46°   Wind: 9mph
Humidity: 80%   Direction: 190°S
Pressure: 29.83"   Gusts: NA
Location:  42.98°N, 78.59°W
Report Text: KBUF 202354Z 19008KT 10SM -RA OVC036 11/08 A2983 RMK AO2 SLP104 P0001 60003 T01110078 10139 20106 53006
Loading
Personal Weather Stations






























Interactive Weather Map
Tropical Storm Tracking
New forecast layout! Learn more

10-Day Weather Forecast

Advertisements
Track Severe Weather on mobile